Time;durP1;ratioP1;P1;durP2;ratioP2;P2;SDS_P1;SDS_P2;PMS_P1;PMS_P2;Temp;Humidity;BMP_temperature;BMP_pressure;BME280_temperature;BME280_humidity;BME280_pressure;Samples;Min_cycle;Max_cycle;Signal;HPM_P1;HPM_P2
2023/05/29 00:00:25;;;;;;;2.80;2.23;;;10.80;65.80;10.60;100889.00;;;;5001054;27;88624;-70
2023/05/29 00:02:51;;;;;;;2.63;2.20;;;10.70;66.10;10.60;100890.00;;;;5002455;27;87851;-70
2023/05/29 00:05:17;;;;;;;2.43;2.20;;;10.60;66.50;10.50;100887.00;;;;5005118;27;86980;-70
2023/05/29 00:07:43;;;;;;;2.43;1.83;;;10.60;67.20;10.40;100882.00;;;;5004509;27;88473;-70
2023/05/29 00:10:10;;;;;;;2.40;1.60;;;10.50;67.60;10.40;100881.00;;;;5006656;27;117245;-70
2023/05/29 00:12:38;;;;;;;3.63;2.40;;;10.50;68.10;10.30;100880.00;;;;4995475;27;89131;-71
2023/05/29 00:15:05;;;;;;;2.40;1.77;;;10.40;68.50;10.20;100887.00;;;;4991813;27;87967;-70
2023/05/29 00:17:37;;;;;;;3.10;2.13;;;10.30;69.00;10.20;100881.00;;;;5009071;27;89230;-69
2023/05/29 00:20:09;;;;;;;3.70;1.80;;;10.30;70.30;10.10;100885.00;;;;5007019;27;88972;-69
2023/05/29 00:22:37;;;;;;;3.40;2.23;;;10.20;70.00;10.00;100879.00;;;;5002631;27;88059;-71
2023/05/29 00:25:07;;;;;;;2.63;2.23;;;10.10;70.90;9.90;100872.00;;;;4999764;27;87970;-71
2023/05/29 00:27:33;;;;;;;2.57;2.13;;;10.00;71.70;9.80;100881.00;;;;4988092;27;88152;-69
2023/05/29 00:30:00;;;;;;;2.70;2.30;;;9.90;72.30;9.70;100887.00;;;;5005830;27;88002;-70
2023/05/29 00:32:27;;;;;;;4.77;2.10;;;9.80;72.90;9.70;100882.00;;;;5006194;27;88051;-69
2023/05/29 00:34:53;;;;;;;3.03;1.83;;;9.70;73.50;9.60;100886.00;;;;5006955;27;87656;-70
2023/05/29 00:37:23;;;;;;;2.80;2.30;;;9.60;74.00;9.50;100875.00;;;;5004852;27;89500;-70
2023/05/29 00:39:49;;;;;;;3.27;2.30;;;9.60;74.70;9.50;100887.00;;;;4987752;27;91452;-70
2023/05/29 00:42:15;;;;;;;2.37;2.03;;;9.60;75.30;9.50;100877.00;;;;4990218;27;89014;-69
2023/05/29 00:44:40;;;;;;;3.17;2.33;;;9.50;75.90;9.50;100874.00;;;;5007925;27;88138;-69
2023/05/29 00:47:06;;;;;;;3.27;2.33;;;9.50;76.40;9.50;100867.00;;;;5006986;27;87965;-70
2023/05/29 00:49:35;;;;;;;3.20;1.90;;;9.50;76.80;9.50;100865.00;;;;5004918;27;88893;-70
2023/05/29 00:52:02;;;;;;;2.03;1.83;;;9.50;77.30;9.50;100870.00;;;;4994355;27;101441;-70
2023/05/29 00:54:29;;;;;;;2.27;1.77;;;9.50;77.90;9.50;100870.00;;;;4995160;27;100484;-70
2023/05/29 00:56:57;;;;;;;1.83;1.60;;;9.50;78.40;9.50;100885.00;;;;5001262;27;90350;-70
2023/05/29 00:59:26;;;;;;;3.10;2.33;;;9.60;78.80;9.50;100881.00;;;;5008131;27;88670;-70
2023/05/29 01:01:55;;;;;;;2.07;1.77;;;9.60;79.10;9.50;100884.00;;;;5006043;27;88702;-70
2023/05/29 01:04:23;;;;;;;2.60;2.13;;;9.60;79.50;9.60;100880.00;;;;4993817;27;109154;-70
2023/05/29 01:06:49;;;;;;;3.17;2.60;;;9.60;79.90;9.50;100890.00;;;;5005675;27;89224;-70
2023/05/29 01:09:16;;;;;;;2.47;2.27;;;9.60;80.20;9.50;100887.00;;;;5004993;27;98751;-70
2023/05/29 01:12:18;;;;;;;2.80;2.17;;;9.60;80.60;9.50;100892.00;;;;4994617;27;88047;-71
2023/05/29 01:15:28;;;;;;;3.40;2.07;;;9.60;81.00;9.30;100878.00;;;;5005834;27;87990;-70
2023/05/29 01:18:38;;;;;;;2.77;2.47;;;9.50;81.50;9.30;100879.00;;;;4994398;27;87824;-70
2023/05/29 01:21:16;;;;;;;2.27;1.90;;;9.50;82.10;9.30;100880.00;;;;4948930;27;87974;-70
2023/05/29 01:24:19;;;;;;;3.17;2.00;;;9.40;82.70;9.20;100879.00;;;;4995246;27;88056;-70
2023/05/29 01:26:51;;;;;;;2.60;2.40;;;9.40;83.50;9.20;100884.00;;;;5003791;27;87964;-70
2023/05/29 01:29:23;;;;;;;2.67;1.60;;;9.30;84.00;9.20;100903.00;;;;5004540;27;90033;-70
2023/05/29 01:31:50;;;;;;;2.90;2.30;;;9.30;84.80;9.20;100905.00;;;;5008498;27;89634;-70
2023/05/29 01:34:16;;;;;;;3.17;2.23;;;9.30;85.40;9.10;100903.00;;;;4994785;27;88083;-70
2023/05/29 01:36:41;;;;;;;4.90;3.03;;;9.20;86.00;9.10;100901.00;;;;5006619;27;105569;-70
2023/05/29 01:39:08;;;;;;;3.17;2.47;;;9.20;87.00;9.00;100896.00;;;;5007024;27;104438;-70
2023/05/29 01:41:34;;;;;;;2.83;2.50;;;9.20;87.70;9.00;100907.00;;;;5006281;27;116852;-71
2023/05/29 01:44:08;;;;;;;3.27;2.93;;;9.10;88.50;8.90;100901.00;;;;4994078;27;98408;-70
2023/05/29 01:46:35;;;;;;;4.37;2.47;;;9.00;89.30;8.90;100888.00;;;;5004239;27;87364;-70
2023/05/29 01:49:02;;;;;;;2.73;2.30;;;9.00;90.00;8.80;100892.00;;;;4994884;27;89153;-70
2023/05/29 01:51:27;;;;;;;4.10;2.57;;;9.00;90.30;8.80;100897.00;;;;4987917;27;87950;-70
2023/05/29 01:53:53;;;;;;;2.57;2.13;;;8.90;90.80;8.80;100901.00;;;;5003828;27;109641;-70
2023/05/29 01:56:19;;;;;;;3.20;2.23;;;8.90;90.70;8.70;100901.00;;;;4998229;27;108169;-70
2023/05/29 01:58:46;;;;;;;2.33;2.13;;;8.80;90.90;8.70;100903.00;;;;4987370;27;88060;-70
2023/05/29 02:01:12;;;;;;;2.57;2.37;;;8.80;91.10;8.70;100895.00;;;;4974432;27;116643;-70
2023/05/29 02:03:43;;;;;;;1.90;1.60;;;8.80;91.30;8.60;100899.00;;;;5004889;27;110325;-70
2023/05/29 02:06:10;;;;;;;2.20;2.00;;;8.80;91.50;8.60;100894.00;;;;5005077;27;108700;-70
2023/05/29 02:08:39;;;;;;;2.80;2.50;;;8.70;91.70;8.60;100894.00;;;;5004997;27;88931;-70
2023/05/29 02:11:04;;;;;;;1.93;1.73;;;8.70;91.90;8.60;100900.00;;;;5005208;27;101817;-70
2023/05/29 02:13:31;;;;;;;4.10;2.23;;;8.70;92.10;8.60;100902.00;;;;5005449;27;89815;-70
2023/05/29 02:15:57;;;;;;;4.43;2.27;;;8.70;92.30;8.50;100901.00;;;;4984516;27;107430;-70
2023/05/29 02:18:23;;;;;;;3.37;2.20;;;8.60;92.40;8.50;100903.00;;;;5005386;27;117473;-70
2023/05/29 02:20:49;;;;;;;1.97;1.80;;;8.60;92.50;8.50;100905.00;;;;5004247;27;98322;-70
2023/05/29 02:23:15;;;;;;;2.73;2.33;;;8.60;92.80;8.40;100897.00;;;;5005549;27;110971;-70
2023/05/29 02:25:41;;;;;;;2.40;2.20;;;8.50;92.90;8.40;100899.00;;;;5006526;27;87987;-70
2023/05/29 02:28:07;;;;;;;4.33;2.53;;;8.50;93.10;8.40;100901.00;;;;5002568;27;100400;-70
2023/05/29 02:30:33;;;;;;;2.47;2.27;;;8.50;93.20;8.30;100899.00;;;;5006765;27;90542;-70
2023/05/29 02:32:59;;;;;;;2.80;2.30;;;8.50;93.50;8.30;100891.00;;;;5005873;27;87905;-70
2023/05/29 02:35:25;;;;;;;1.93;1.83;;;8.50;93.60;8.30;100906.00;;;;4990461;27;100610;-70
2023/05/29 02:37:52;;;;;;;4.37;2.63;;;8.40;94.10;8.20;100908.00;;;;5007868;27;88757;-70
2023/05/29 02:40:18;;;;;;;5.07;2.90;;;8.30;94.10;8.10;100906.00;;;;5005770;27;89038;-70
2023/05/29 02:42:45;;;;;;;7.83;3.53;;;8.30;94.50;8.00;100901.00;;;;5004285;27;88878;-70
2023/05/29 02:45:11;;;;;;;2.63;2.43;;;8.20;95.20;8.00;100920.00;;;;4972791;27;87926;-71
2023/05/29 02:47:38;;;;;;;2.33;2.10;;;8.10;95.20;7.90;100908.00;;;;5003346;27;115576;-70
2023/05/29 02:50:05;;;;;;;4.47;2.63;;;8.00;95.60;7.80;100914.00;;;;5003637;27;116881;-70
2023/05/29 02:52:32;;;;;;;4.60;3.00;;;8.00;96.00;7.70;100906.00;;;;5004775;27;88198;-70
2023/05/29 02:54:58;;;;;;;3.57;2.97;;;8.10;96.50;7.70;100915.00;;;;5004928;27;109147;-71
2023/05/29 02:57:24;;;;;;;3.57;3.27;;;7.80;96.90;7.60;100909.00;;;;4975373;27;89728;-70
2023/05/29 02:59:51;;;;;;;4.07;3.20;;;7.70;97.40;7.50;100906.00;;;;5001481;27;107135;-70
2023/05/29 03:02:17;;;;;;;3.47;2.63;;;7.80;97.60;7.50;100907.00;;;;5004292;27;87916;-70
2023/05/29 03:04:44;;;;;;;4.00;2.50;;;7.60;97.80;7.40;100917.00;;;;5005366;27;87935;-70
2023/05/29 03:07:10;;;;;;;4.37;2.83;;;7.50;97.90;7.40;100916.00;;;;5005480;27;90056;-70
2023/05/29 03:09:36;;;;;;;3.30;3.00;;;7.60;98.10;7.40;100916.00;;;;5003095;27;89946;-70
2023/05/29 03:12:02;;;;;;;5.37;2.87;;;7.80;98.30;7.40;100917.00;;;;5004124;27;110389;-70
2023/05/29 03:14:28;;;;;;;2.67;2.47;;;7.60;98.40;7.40;100931.00;;;;5004645;27;88066;-70
2023/05/29 03:16:54;;;;;;;3.73;3.20;;;7.50;98.50;7.40;100930.00;;;;5002523;27;88825;-70
2023/05/29 03:19:20;;;;;;;4.33;3.13;;;7.50;98.60;7.40;100920.00;;;;5002570;27;88682;-70
2023/05/29 03:21:46;;;;;;;3.83;3.30;;;7.50;98.70;7.40;100925.00;;;;5005111;27;109292;-70
2023/05/29 03:24:15;;;;;;;4.93;2.40;;;7.60;98.80;7.40;100929.00;;;;5006003;27;86982;-70
2023/05/29 03:26:41;;;;;;;3.20;2.63;;;7.50;98.90;7.40;100921.00;;;;5007163;27;89691;-70
2023/05/29 03:29:07;;;;;;;2.63;2.27;;;7.90;99.10;7.40;100927.00;;;;5004389;27;110097;-70
2023/05/29 03:31:33;;;;;;;3.10;2.80;;;8.00;99.30;7.40;100936.00;;;;5004703;27;91596;-70
2023/05/29 03:33:59;;;;;;;2.97;2.63;;;7.60;99.30;7.40;100936.00;;;;5004250;27;108008;-70
2023/05/29 03:36:25;;;;;;;2.50;2.30;;;7.50;99.50;7.50;100924.00;;;;5005851;27;88792;-70
2023/05/29 03:38:51;;;;;;;2.60;2.40;;;7.60;99.70;7.50;100929.00;;;;5002912;27;116925;-70
2023/05/29 03:41:16;;;;;;;3.90;2.57;;;7.60;99.70;7.60;100927.00;;;;5000112;27;111608;-70
2023/05/29 03:43:45;;;;;;;4.93;2.63;;;7.60;99.80;7.60;100924.00;;;;4992384;27;108285;-70
2023/05/29 03:46:11;;;;;;;3.10;2.40;;;7.70;99.90;7.60;100935.00;;;;5004255;27;116279;-71
2023/05/29 03:48:36;;;;;;;2.37;2.17;;;7.70;99.90;7.70;100929.00;;;;5007123;27;97629;-70
2023/05/29 03:51:02;;;;;;;7.57;3.30;;;7.70;99.90;7.70;100918.00;;;;5007169;27;110597;-70
2023/05/29 03:53:27;;;;;;;3.43;3.20;;;7.80;99.90;7.80;100934.00;;;;5004308;27;98602;-70
2023/05/29 03:55:53;;;;;;;2.30;2.10;;;7.90;99.90;7.90;100928.00;;;;5005031;27;118861;-71
2023/05/29 03:58:19;;;;;;;3.20;2.40;;;8.00;99.90;8.00;100937.00;;;;4991655;27;117738;-70
2023/05/29 04:00:45;;;;;;;3.33;2.37;;;8.10;99.90;8.00;100934.00;;;;4997756;27;87774;-71
2023/05/29 04:03:11;;;;;;;3.63;3.00;;;8.10;99.90;8.10;100933.00;;;;4994848;27;108337;-70
2023/05/29 04:05:36;;;;;;;3.93;2.70;;;8.20;99.90;8.20;100937.00;;;;4957905;28;89127;-70
2023/05/29 04:08:04;;;;;;;3.50;2.47;;;8.30;99.90;8.30;100940.00;;;;5006717;27;109110;-70
2023/05/29 04:10:33;;;;;;;3.57;2.87;;;8.30;99.90;8.30;100943.00;;;;5006901;27;87866;-70
2023/05/29 04:13:00;;;;;;;2.50;2.30;;;8.40;99.90;8.40;100947.00;;;;5007985;27;87171;-70
2023/05/29 04:15:27;;;;;;;3.70;2.93;;;8.50;99.90;8.50;100951.00;;;;5007566;27;89193;-70
2023/05/29 04:17:54;;;;;;;3.27;2.17;;;8.60;99.90;8.60;100948.00;;;;5008915;27;87943;-70
2023/05/29 04:20:21;;;;;;;3.23;2.33;;;8.60;99.90;8.70;100949.00;;;;5008437;27;88769;-70
2023/05/29 04:22:46;;;;;;;2.50;2.30;;;8.80;99.90;8.80;100950.00;;;;5005860;27;87797;-70
2023/05/29 04:25:12;;;;;;;4.93;3.37;;;8.90;99.90;9.00;100946.00;;;;5006498;27;119372;-70
2023/05/29 04:27:38;;;;;;;5.33;2.73;;;9.00;99.90;9.10;100963.00;;;;5006210;27;117885;-71
2023/05/29 04:30:07;;;;;;;4.00;2.97;;;9.20;99.90;9.30;100971.00;;;;5007166;27;87949;-70
2023/05/29 04:32:34;;;;;;;4.27;2.90;;;9.30;99.90;9.40;100963.00;;;;5007055;27;89343;-70
2023/05/29 04:35:03;;;;;;;2.77;2.57;;;9.40;99.90;9.60;100966.00;;;;5006815;27;88813;-70
2023/05/29 04:37:29;;;;;;;3.40;3.10;;;9.60;99.90;9.80;100971.00;;;;5009646;27;88138;-70
2023/05/29 04:39:58;;;;;;;2.67;2.47;;;9.70;99.90;9.90;100972.00;;;;5005678;27;87875;-71
2023/05/29 04:42:24;;;;;;;4.93;3.17;;;9.90;99.90;10.10;100970.00;;;;4971106;27;107016;-70
2023/05/29 04:44:52;;;;;;;2.10;2.00;;;10.10;99.90;10.30;100978.00;;;;5002937;27;90542;-70
2023/05/29 04:47:18;;;;;;;3.57;2.10;;;10.30;99.90;10.50;100979.00;;;;4989689;27;90208;-70
2023/05/29 04:49:48;;;;;;;3.63;2.70;;;10.40;99.70;10.70;100981.00;;;;4993051;27;94299;-70
2023/05/29 04:52:15;;;;;;;5.47;3.17;;;10.60;99.50;10.90;100978.00;;;;5006482;27;87903;-70
2023/05/29 04:54:41;;;;;;;6.53;2.73;;;10.80;99.20;11.10;100980.00;;;;5006733;27;88205;-70
2023/05/29 04:57:08;;;;;;;2.20;2.00;;;11.00;98.90;11.20;100981.00;;;;5005388;27;116525;-70
2023/05/29 04:59:35;;;;;;;3.53;3.23;;;11.20;98.60;11.40;100968.00;;;;5006152;27;88539;-70
2023/05/29 05:02:01;;;;;;;2.43;2.23;;;11.30;98.40;11.50;100981.00;;;;5009383;27;97176;-70
2023/05/29 05:04:27;;;;;;;2.47;2.33;;;11.50;98.20;11.70;100976.00;;;;5004550;27;116747;-70
2023/05/29 05:06:52;;;;;;;2.90;2.53;;;11.70;97.90;12.00;100985.00;;;;5006807;27;115589;-70
2023/05/29 05:09:18;;;;;;;2.67;2.43;;;11.90;97.70;12.10;100976.00;;;;5004333;27;88695;-70
2023/05/29 05:11:44;;;;;;;3.47;2.67;;;12.10;97.50;12.40;100980.00;;;;5003630;27;108646;-70
2023/05/29 05:14:09;;;;;;;4.00;3.20;;;12.30;97.30;12.60;100992.00;;;;5001139;27;87838;-70
2023/05/29 05:16:35;;;;;;;5.47;3.03;;;12.50;96.90;12.90;100991.00;;;;5003261;27;117295;-71
2023/05/29 05:19:01;;;;;;;5.00;2.43;;;12.70;96.70;13.10;100991.00;;;;5002211;27;109324;-69
2023/05/29 05:21:26;;;;;;;4.70;2.60;;;13.00;96.40;13.30;100988.00;;;;5002461;27;108419;-68
2023/05/29 05:23:52;;;;;;;3.30;2.13;;;13.20;96.10;13.50;100992.00;;;;5000239;27;115751;-68
2023/05/29 05:26:18;;;;;;;3.37;2.43;;;13.50;95.80;13.80;100989.00;;;;5001163;27;117723;-68
2023/05/29 05:28:43;;;;;;;3.20;1.93;;;13.60;95.50;14.00;100991.00;;;;5000628;27;110879;-68
2023/05/29 05:31:09;;;;;;;2.40;1.70;;;13.90;95.20;14.30;100981.00;;;;5001339;27;88117;-68
2023/05/29 05:33:35;;;;;;;3.78;1.75;;;14.10;94.80;14.50;100977.00;;;;4982227;27;118354;-68
2023/05/29 05:36:01;;;;;;;3.47;2.27;;;14.40;94.50;14.80;100983.00;;;;5003279;27;118082;-68
2023/05/29 05:38:26;;;;;;;2.13;1.83;;;14.60;94.10;15.00;100993.00;;;;5002109;27;88080;-67
2023/05/29 05:40:52;;;;;;;2.58;1.92;;;14.80;93.70;15.30;100989.00;;;;5000750;27;108758;-69
2023/05/29 05:43:18;;;;;;;5.28;2.00;;;15.10;93.30;15.50;100987.00;;;;5002965;27;118308;-68
2023/05/29 05:45:43;;;;;;;1.40;1.30;;;15.30;92.80;15.70;100993.00;;;;5003117;27;90450;-68
2023/05/29 05:48:09;;;;;;;2.38;1.50;;;15.50;92.40;15.90;100998.00;;;;5003708;27;87929;-69
2023/05/29 05:50:35;;;;;;;4.20;2.00;;;15.80;91.90;16.20;101008.00;;;;4995992;27;87247;-69
2023/05/29 05:53:01;;;;;;;1.15;1.00;;;16.00;91.50;16.30;101004.00;;;;5001723;27;88986;-70
2023/05/29 05:55:27;;;;;;;3.42;1.40;;;16.20;90.90;16.60;100995.00;;;;4994413;27;118879;-70
2023/05/29 05:57:55;;;;;;;2.28;2.15;;;16.40;90.40;16.80;100991.00;;;;5003733;27;89162;-70
2023/05/29 06:00:23;;;;;;;4.43;2.50;;;16.60;90.10;17.00;101000.00;;;;5001784;27;88944;-70
2023/05/29 06:02:48;;;;;;;3.03;1.70;;;16.80;89.10;17.20;100999.00;;;;5001350;27;88984;-68
2023/05/29 06:05:14;;;;;;;5.43;2.53;;;17.00;87.50;17.40;101012.00;;;;4994752;27;117447;-69
2023/05/29 06:07:40;;;;;;;4.43;1.92;;;17.20;86.40;17.60;101009.00;;;;4995379;27;88348;-68
2023/05/29 06:10:07;;;;;;;2.63;1.40;;;17.40;85.10;17.70;101017.00;;;;5003775;27;88251;-68
2023/05/29 06:12:34;;;;;;;4.78;2.67;;;17.50;83.80;17.80;101025.00;;;;5002504;27;91049;-68
2023/05/29 06:15:00;;;;;;;2.00;1.58;;;17.60;83.30;18.00;101025.00;;;;5003706;27;87391;-68
2023/05/29 06:17:25;;;;;;;2.60;1.80;;;17.80;82.90;18.20;101028.00;;;;5000672;27;109545;-68
2023/05/29 06:19:51;;;;;;;5.00;2.15;;;18.00;82.40;18.40;101031.00;;;;4961770;27;109194;-69
2023/05/29 06:22:18;;;;;;;3.20;1.75;;;18.20;81.00;18.60;101033.00;;;;4977229;27;119051;-70
2023/05/29 06:24:44;;;;;;;1.65;1.30;;;18.40;80.20;18.80;101036.00;;;;5000819;27;118487;-69
2023/05/29 06:27:10;;;;;;;3.08;1.60;;;18.60;79.10;19.00;101038.00;;;;5002677;27;88675;-68
2023/05/29 06:29:36;;;;;;;4.47;2.40;;;18.80;77.50;19.20;101029.00;;;;4997615;27;88002;-68
2023/05/29 06:32:01;;;;;;;1.70;1.60;;;19.00;76.50;19.40;101039.00;;;;4992383;27;108008;-71
2023/05/29 06:34:33;;;;;;;3.22;2.20;;;19.20;75.80;19.60;101029.00;;;;4999517;27;118164;-70
2023/05/29 06:36:58;;;;;;;1.92;1.83;;;19.40;74.70;19.90;101042.00;;;;4999828;27;110630;-69
2023/05/29 06:39:24;;;;;;;2.15;1.65;;;19.60;73.50;20.00;101046.00;;;;5000848;27;108932;-69
2023/05/29 06:41:50;;;;;;;1.52;1.20;;;19.80;71.30;20.10;101053.00;;;;4998437;27;89323;-68
2023/05/29 06:44:16;;;;;;;1.13;1.02;;;19.90;71.70;20.30;101059.00;;;;4999666;27;115775;-68
2023/05/29 06:46:41;;;;;;;1.42;1.13;;;20.10;69.00;20.50;101056.00;;;;5003571;27;109430;-67
2023/05/29 06:49:07;;;;;;;2.47;1.73;;;20.30;67.60;20.60;101057.00;;;;5000507;27;110093;-67
2023/05/29 06:51:33;;;;;;;1.30;0.90;;;20.40;67.10;20.70;101059.00;;;;4998667;27;118817;-67
2023/05/29 06:53:59;;;;;;;5.95;1.48;;;20.50;65.40;20.80;101054.00;;;;5000920;27;96609;-69
2023/05/29 06:56:25;;;;;;;1.67;1.48;;;20.60;65.40;21.00;101052.00;;;;4997271;27;88220;-69
2023/05/29 06:58:52;;;;;;;1.33;1.23;;;20.70;65.30;21.20;101055.00;;;;4997135;27;88767;-68
2023/05/29 07:01:18;;;;;;;3.38;1.30;;;21.00;64.50;21.40;101063.00;;;;4999291;27;107837;-67
2023/05/29 07:03:43;;;;;;;1.67;1.10;;;21.20;63.40;21.70;101070.00;;;;4999569;27;116902;-69
2023/05/29 07:06:09;;;;;;;1.55;1.45;;;21.40;62.70;21.90;101067.00;;;;4997081;27;109617;-68
2023/05/29 07:08:35;;;;;;;4.00;1.92;;;21.60;62.10;22.20;101073.00;;;;4998238;27;88148;-69
2023/05/29 07:11:02;;;;;;;1.55;1.40;;;21.90;61.00;22.40;101064.00;;;;5000951;27;95783;-70
2023/05/29 07:13:27;;;;;;;1.52;1.15;;;22.10;59.90;22.60;101052.00;;;;4999653;27;88713;-67
2023/05/29 07:15:53;;;;;;;1.60;1.42;;;22.30;59.60;22.80;101067.00;;;;5001310;27;109308;-70
2023/05/29 07:18:19;;;;;;;2.83;1.55;;;22.50;59.10;23.00;101075.00;;;;4991855;27;108091;-69
2023/05/29 07:20:45;;;;;;;1.88;1.27;;;22.70;58.80;23.20;101071.00;;;;5001179;27;88359;-67
2023/05/29 07:23:10;;;;;;;2.05;1.30;;;22.90;58.20;23.40;101076.00;;;;5001732;27;88592;-67
2023/05/29 07:25:36;;;;;;;3.95;1.35;;;23.20;57.80;23.60;101079.00;;;;5000871;27;111178;-70
2023/05/29 07:28:01;;;;;;;2.35;1.73;;;23.40;57.30;23.80;101074.00;;;;4997958;27;109225;-68
2023/05/29 07:30:27;;;;;;;1.17;1.00;;;23.60;56.70;24.00;101078.00;;;;5001251;27;118276;-68
2023/05/29 07:32:53;;;;;;;3.72;1.00;;;23.80;56.20;24.20;101081.00;;;;5003310;27;116740;-68
2023/05/29 07:35:18;;;;;;;1.48;1.23;;;24.00;55.20;24.30;101076.00;;;;5000907;27;110087;-68
2023/05/29 07:37:44;;;;;;;1.63;1.10;;;24.10;54.30;24.40;101081.00;;;;4999939;27;110330;-69
2023/05/29 07:40:10;;;;;;;2.35;1.50;;;24.20;53.70;24.60;101083.00;;;;4999780;27;117327;-69
2023/05/29 07:42:36;;;;;;;2.08;1.17;;;24.40;53.20;24.80;101082.00;;;;4988824;27;118034;-68
2023/05/29 07:45:01;;;;;;;2.13;1.63;;;24.50;52.80;25.00;101083.00;;;;5001054;27;88076;-70
2023/05/29 07:47:27;;;;;;;3.22;1.52;;;24.80;51.40;25.10;101082.00;;;;5002805;27;88244;-69
2023/05/29 07:49:53;;;;;;;2.05;1.20;;;24.90;50.80;25.20;101085.00;;;;5002053;27;88992;-69
2023/05/29 07:52:19;;;;;;;2.72;1.50;;;25.00;50.20;25.30;101083.00;;;;4965672;27;116139;-70
2023/05/29 07:54:44;;;;;;;4.40;1.38;;;25.10;49.00;25.30;101082.00;;;;5000343;27;110020;-71
2023/05/29 07:57:10;;;;;;;1.55;1.45;;;25.20;49.00;25.50;101093.00;;;;5000815;27;87907;-69
2023/05/29 07:59:42;;;;;;;1.33;0.95;;;25.20;49.00;25.70;101087.00;;;;4998986;27;118943;-69
2023/05/29 08:02:08;;;;;;;4.22;1.63;;;25.40;48.80;25.90;101095.00;;;;4982165;27;88723;-68
2023/05/29 08:04:34;;;;;;;1.75;1.17;;;25.60;48.10;26.00;101096.00;;;;4990260;27;92686;-68
2023/05/29 08:07:03;;;;;;;1.25;1.02;;;25.80;48.00;26.20;101091.00;;;;4995379;27;101115;-68
2023/05/29 08:09:29;;;;;;;2.03;1.17;;;25.90;47.20;26.30;101088.00;;;;4995712;27;88868;-68
2023/05/29 08:11:55;;;;;;;1.25;1.15;;;26.10;46.50;26.30;101091.00;;;;4997882;27;110187;-70
2023/05/29 08:14:20;;;;;;;1.98;1.45;;;26.20;46.50;26.50;101093.00;;;;5001555;27;89408;-70
2023/05/29 08:16:46;;;;;;;3.95;1.83;;;26.30;46.30;26.60;101102.00;;;;5000284;27;87389;-68
2023/05/29 08:19:12;;;;;;;4.22;1.50;;;26.40;45.40;26.70;101101.00;;;;4987799;27;87995;-69
2023/05/29 08:21:38;;;;;;;2.63;1.35;;;26.50;45.60;26.80;101104.00;;;;5000818;27;87940;-68
2023/05/29 08:24:06;;;;;;;2.05;1.00;;;26.60;45.50;26.90;101104.00;;;;4999602;27;88970;-69
2023/05/29 08:26:32;;;;;;;1.90;1.05;;;26.70;45.30;27.00;101100.00;;;;4999133;27;88020;-72
2023/05/29 08:28:58;;;;;;;2.28;1.00;;;26.80;45.00;27.10;101100.00;;;;4998671;27;89157;-72
2023/05/29 08:31:25;;;;;;;1.20;0.70;;;26.90;44.90;27.30;101109.00;;;;5003329;27;88020;-73
2023/05/29 08:33:51;;;;;;;2.13;1.30;;;27.00;44.90;27.40;101110.00;;;;5005118;27;87920;-72
2023/05/29 08:36:17;;;;;;;1.10;0.70;;;27.20;44.30;27.50;101111.00;;;;5003341;27;95795;-71
2023/05/29 08:38:43;;;;;;;1.65;1.08;;;27.30;43.60;27.60;101109.00;;;;5002097;27;110191;-71
2023/05/29 08:41:19;;;;;;;3.03;1.25;;;27.40;42.00;27.40;101112.00;;;;5002746;27;103363;-71
2023/05/29 08:43:46;;;;;;;2.17;1.30;;;27.30;42.10;27.20;101095.00;;;;4988857;27;88140;-72
2023/05/29 08:46:13;;;;;;;1.75;1.13;;;27.10;42.20;27.20;101108.00;;;;4983671;27;108883;-71
2023/05/29 08:48:43;;;;;;;2.22;1.15;;;27.00;41.80;27.20;101104.00;;;;4985012;27;119668;-74
2023/05/29 08:51:10;;;;;;;3.17;1.05;;;26.90;42.10;27.20;101103.00;;;;4987712;27;109342;-71
2023/05/29 08:53:36;;;;;;;6.32;1.25;;;26.90;42.30;27.30;101100.00;;;;5004349;27;89445;-71
2023/05/29 08:56:02;;;;;;;2.33;1.30;;;27.00;42.00;27.40;101102.00;;;;5003976;27;99631;-72
2023/05/29 08:58:28;;;;;;;4.25;1.17;;;27.10;42.30;27.60;101105.00;;;;4990518;27;88390;-71
2023/05/29 09:00:55;;;;;;;4.78;1.58;;;27.30;42.20;27.80;101099.00;;;;4982863;27;116191;-71
2023/05/29 09:03:22;;;;;;;2.53;1.33;;;27.50;41.90;28.00;101089.00;;;;5002829;27;87985;-73
2023/05/29 09:05:48;;;;;;;1.25;0.68;;;27.60;41.60;28.20;101094.00;;;;4973412;27;87225;-74
2023/05/29 09:08:15;;;;;;;1.27;0.70;;;27.80;41.30;28.40;101105.00;;;;5006109;27;89082;-71
2023/05/29 09:10:45;;;;;;;1.52;0.75;;;28.00;41.00;28.50;101101.00;;;;4990776;27;88245;-75
2023/05/29 09:13:13;;;;;;;0.88;0.75;;;28.10;40.30;28.60;101102.00;;;;4989232;27;89116;-71
2023/05/29 09:15:42;;;;;;;2.10;1.27;;;28.20;40.40;28.60;101109.00;;;;5000877;27;87811;-74
2023/05/29 09:18:08;;;;;;;2.85;1.17;;;28.30;40.10;28.80;101113.00;;;;5002456;27;89742;-72
2023/05/29 09:20:34;;;;;;;1.27;0.73;;;28.40;40.10;28.90;101112.00;;;;5003271;27;88055;-73
2023/05/29 09:23:10;;;;;;;1.75;1.02;;;28.60;39.50;29.00;101110.00;;;;5003401;27;102872;-73
2023/05/29 09:25:42;;;;;;;2.28;0.90;;;28.70;39.90;29.10;101107.00;;;;4985372;27;112035;-73
2023/05/29 09:28:08;;;;;;;1.75;1.13;;;28.80;39.30;29.30;101104.00;;;;5004836;27;88010;-73
2023/05/29 09:30:40;;;;;;;1.13;0.95;;;28.90;38.70;29.30;101102.00;;;;4996838;27;87597;-73
2023/05/29 09:33:08;;;;;;;4.13;0.93;;;28.90;38.20;29.40;101103.00;;;;4990327;27;87600;-75
2023/05/29 09:35:42;;;;;;;1.67;1.25;;;29.00;37.70;29.50;101104.00;;;;4994355;27;87921;-72
2023/05/29 09:38:13;;;;;;;2.25;1.40;;;29.10;36.50;29.40;101108.00;;;;4989986;27;91294;-72
2023/05/29 09:40:40;;;;;;;7.70;1.80;;;29.10;36.60;29.40;101108.00;;;;4968521;27;89056;-76
2023/05/29 09:43:12;;;;;;;2.05;1.15;;;29.10;37.00;29.50;101115.00;;;;5004153;27;88030;-74
2023/05/29 09:45:45;;;;;;;1.67;1.02;;;29.10;37.10;29.60;101112.00;;;;4986106;27;87824;-73
2023/05/29 09:48:16;;;;;;;1.75;1.05;;;29.10;36.70;29.70;101113.00;;;;4982168;27;89763;-72
2023/05/29 09:50:45;;;;;;;2.40;1.10;;;29.20;36.90;29.70;101105.00;;;;4993214;27;88909;-75
2023/05/29 09:53:24;;;;;;;1.73;1.30;;;29.30;35.60;29.80;101103.00;;;;4987271;27;88453;-73
2023/05/29 09:55:51;;;;;;;3.03;1.15;;;29.40;36.10;30.00;101107.00;;;;4985131;27;87223;-74
2023/05/29 09:58:25;;;;;;;3.38;1.48;;;29.50;36.10;30.20;101105.00;;;;4984787;27;88014;-74
2023/05/29 10:00:52;;;;;;;1.50;1.00;;;29.70;36.00;30.30;101109.00;;;;4993975;27;87976;-72
2023/05/29 10:03:19;;;;;;;2.13;1.48;;;29.80;34.80;30.40;101090.00;;;;4999593;27;88791;-74
2023/05/29 10:05:52;;;;;;;1.58;0.90;;;29.90;34.90;30.50;101103.00;;;;4994557;27;87817;-72
2023/05/29 10:08:20;;;;;;;1.40;1.30;;;30.10;35.10;30.80;101094.00;;;;4985203;27;88351;-73
2023/05/29 10:10:59;;;;;;;3.05;1.10;;;30.20;34.90;31.10;101105.00;;;;4983734;27;89043;-73
2023/05/29 10:13:31;;;;;;;3.38;1.02;;;30.40;34.70;31.40;101105.00;;;;4982045;27;88427;-75
2023/05/29 10:15:58;;;;;;;2.63;1.40;;;30.70;33.70;31.50;101104.00;;;;4999282;27;89030;-73
2023/05/29 10:18:32;;;;;;;1.42;1.33;;;30.90;33.10;31.70;101106.00;;;;4987248;27;117388;-72
2023/05/29 10:21:00;;;;;;;3.08;1.02;;;31.00;33.10;31.90;101091.00;;;;4991130;27;87322;-74
2023/05/29 10:23:28;;;;;;;6.80;0.88;;;31.20;33.00;32.20;101092.00;;;;4993862;27;110623;-73
2023/05/29 10:26:14;;;;;;;7.50;1.40;;;31.40;33.10;32.40;101093.00;;;;4967039;27;87813;-73
2023/05/29 10:28:46;;;;;;;5.50;1.10;;;31.70;32.30;32.50;101081.00;;;;4967615;28;90806;-73
2023/05/29 10:31:30;;;;;;;1.23;0.82;;;31.80;31.80;32.60;101099.00;;;;4971234;27;89826;-72
2023/05/29 10:34:26;;;;;;;1.85;0.80;;;31.90;32.00;32.70;101100.00;;;;4981494;27;87748;-74
2023/05/29 10:37:08;;;;;;;1.45;1.33;;;32.00;32.00;33.00;101092.00;;;;4995122;27;88163;-75
2023/05/29 10:39:34;;;;;;;2.88;1.08;;;32.20;31.90;33.20;101090.00;;;;4983159;27;110591;-75
2023/05/29 10:42:00;;;;;;;3.58;1.02;;;32.40;30.60;33.20;101093.00;;;;4981293;27;106083;-72
2023/05/29 10:44:32;;;;;;;0.85;0.70;;;32.40;30.20;33.20;101093.00;;;;4964652;27;88106;-75
2023/05/29 10:47:05;;;;;;;1.20;1.08;;;32.50;30.30;33.20;101086.00;;;;5004269;27;87233;-74
2023/05/29 10:49:31;;;;;;;1.58;0.77;;;32.50;30.40;33.10;101090.00;;;;5000009;27;88676;-73
2023/05/29 10:51:59;;;;;;;0.77;0.75;;;32.40;30.60;32.80;101094.00;;;;4983671;27;87835;-74